createdAt,value
2018-10-11T00:00:25.081Z,54.60
2018-10-11T00:01:00.338Z,56.00
2018-10-11T00:01:36.631Z,56.70
2018-10-11T00:02:12.102Z,56.60
2018-10-11T00:02:47.631Z,58.80
2018-10-11T00:03:22.894Z,59.80
2018-10-11T00:03:58.215Z,60.10
2018-10-11T00:04:33.989Z,60.80
2018-10-11T00:05:09.324Z,60.00
2018-10-11T00:05:44.846Z,57.90
2018-10-11T00:06:19.898Z,57.40
2018-10-11T00:06:55.250Z,58.20
2018-10-11T00:07:30.603Z,60.70
2018-10-11T00:08:05.918Z,60.80
2018-10-11T00:08:41.438Z,55.50
2018-10-11T00:09:17.074Z,56.20
2018-10-11T00:09:52.316Z,59.20
2018-10-11T00:10:27.770Z,62.60
2018-10-11T00:11:03.341Z,61.60
2018-10-11T00:11:38.551Z,60.50
2018-10-11T00:12:13.992Z,60.20
2018-10-11T00:12:50.785Z,58.40
2018-10-11T00:13:26.231Z,60.50
2018-10-11T00:14:01.555Z,60.80
2018-10-11T00:14:37.513Z,61.90
2018-10-11T00:15:12.738Z,62.20
2018-10-11T00:15:48.525Z,59.10
2018-10-11T00:16:24.044Z,59.00
2018-10-11T00:16:59.627Z,57.80
2018-10-11T00:17:34.971Z,60.60
2018-10-11T00:18:10.328Z,63.70
2018-10-11T00:18:45.665Z,59.30
2018-10-11T00:19:20.993Z,54.10
2018-10-11T00:19:56.057Z,55.80
2018-10-11T00:20:31.415Z,57.50
2018-10-11T00:21:07.038Z,57.10
2018-10-11T00:21:42.604Z,58.40
2018-10-11T00:22:17.825Z,61.70
2018-10-11T00:22:53.053Z,62.50
2018-10-11T00:23:28.456Z,58.50
2018-10-11T00:24:03.828Z,58.50
2018-10-11T00:24:39.291Z,59.20
2018-10-11T00:25:14.534Z,62.10
2018-10-11T00:25:50.025Z,67.70
2018-10-11T00:26:25.719Z,68.60
2018-10-11T00:27:01.251Z,63.50
2018-10-11T00:27:36.783Z,62.50
2018-10-11T00:28:11.976Z,64.20
2018-10-11T00:28:47.189Z,62.50
2018-10-11T00:29:22.591Z,59.10
2018-10-11T00:29:57.827Z,65.60
2018-10-11T00:30:33.222Z,70.70
2018-10-11T00:31:08.671Z,63.90
2018-10-11T00:31:43.879Z,61.70
2018-10-11T00:32:19.634Z,64.60
2018-10-11T00:32:55.055Z,66.10
2018-10-11T00:33:30.599Z,67.30
2018-10-11T00:34:06.240Z,62.70
2018-10-11T00:34:41.829Z,64.90
2018-10-11T00:35:17.220Z,68.50
2018-10-11T00:35:52.580Z,61.20
2018-10-11T00:36:27.909Z,64.90
2018-10-11T00:37:03.125Z,66.20
2018-10-11T00:37:38.419Z,60.30
2018-10-11T00:38:13.841Z,64.40
2018-10-11T00:38:49.385Z,62.90
2018-10-11T00:39:25.023Z,65.40
2018-10-11T00:40:00.573Z,62.40
2018-10-11T00:40:36.581Z,59.20
2018-10-11T00:41:11.959Z,61.40
2018-10-11T00:41:47.625Z,70.30
2018-10-11T00:42:23.045Z,68.40
2018-10-11T00:42:58.716Z,63.00
2018-10-11T00:43:34.131Z,67.40
2018-10-11T00:44:09.505Z,66.30
2018-10-11T00:44:44.843Z,67.00
2018-10-11T00:45:20.685Z,65.00
2018-10-11T00:45:56.588Z,62.40
2018-10-11T00:46:31.917Z,64.30
2018-10-11T00:47:07.446Z,64.00
2018-10-11T00:47:42.981Z,64.70
2018-10-11T00:48:18.364Z,71.10
2018-10-11T00:48:53.525Z,68.80
2018-10-11T00:49:29.064Z,65.00
2018-10-11T00:50:04.471Z,65.30
2018-10-11T00:50:39.548Z,61.00
2018-10-11T00:51:14.922Z,59.20
2018-10-11T00:51:50.155Z,63.30
2018-10-11T00:52:25.778Z,59.50
2018-10-11T00:53:00.881Z,59.50
2018-10-11T00:53:36.045Z,63.00
2018-10-11T00:54:11.477Z,64.50
2018-10-11T00:54:47.117Z,64.30
2018-10-11T00:55:22.542Z,71.70
2018-10-11T00:55:58.071Z,68.20
2018-10-11T00:56:33.604Z,67.10
2018-10-11T00:57:09.184Z,70.00
2018-10-11T00:57:44.643Z,65.10
2018-10-11T00:58:19.905Z,65.60
2018-10-11T00:58:55.111Z,60.70
2018-10-11T00:59:30.579Z,62.70
2018-10-11T01:00:05.889Z,69.80
2018-10-11T01:00:41.917Z,65.90
2018-10-11T01:01:17.545Z,65.90
2018-10-11T01:01:52.865Z,75.60
2018-10-11T01:02:28.315Z,68.00
2018-10-11T01:03:03.857Z,61.50
2018-10-11T01:03:39.190Z,63.00
2018-10-11T01:04:14.488Z,61.30
2018-10-11T01:04:49.916Z,65.30
2018-10-11T01:05:25.404Z,67.40
2018-10-11T01:06:00.611Z,64.10
2018-10-11T01:06:35.804Z,64.70
2018-10-11T01:07:11.523Z,62.20
2018-10-11T01:07:46.757Z,62.10
2018-10-11T01:08:22.340Z,65.70
2018-10-11T01:08:57.650Z,67.40
2018-10-11T01:09:33.008Z,64.80
2018-10-11T01:10:08.705Z,65.30
2018-10-11T01:10:43.981Z,66.70
2018-10-11T01:11:19.443Z,68.80
2018-10-11T01:11:54.976Z,64.50
2018-10-11T01:12:30.287Z,69.20
2018-10-11T01:13:05.746Z,68.80
2018-10-11T01:13:40.767Z,62.10
2018-10-11T01:14:16.221Z,68.10
2018-10-11T01:14:51.630Z,69.40
2018-10-11T01:15:26.947Z,64.40
2018-10-11T01:16:02.216Z,66.30
2018-10-11T01:16:37.467Z,65.70
2018-10-11T01:17:12.664Z,65.30
2018-10-11T01:17:48.007Z,69.90
2018-10-11T01:18:23.355Z,70.10
2018-10-11T01:18:58.598Z,68.40
2018-10-11T01:19:34.121Z,67.50
2018-10-11T01:20:09.287Z,69.40
2018-10-11T01:20:44.619Z,67.80
2018-10-11T01:21:19.993Z,67.10
2018-10-11T01:21:55.289Z,69.80
2018-10-11T01:22:30.730Z,73.00
2018-10-11T01:23:06.084Z,74.10
2018-10-11T01:23:41.501Z,72.80
2018-10-11T01:24:16.753Z,67.70
2018-10-11T01:24:52.483Z,65.50
2018-10-11T01:25:27.989Z,66.80
2018-10-11T01:26:03.564Z,68.30
2018-10-11T01:26:38.790Z,71.20
2018-10-11T01:27:14.452Z,71.10
2018-10-11T01:27:49.741Z,66.00
2018-10-11T01:28:25.471Z,64.50
2018-10-11T01:29:00.673Z,68.20
2018-10-11T01:29:35.941Z,68.00
2018-10-11T01:30:11.250Z,67.10
2018-10-11T01:30:46.586Z,64.60
2018-10-11T01:31:21.861Z,71.80
2018-10-11T01:31:57.724Z,68.90
2018-10-11T01:32:32.807Z,63.40
2018-10-11T01:33:08.155Z,64.00
2018-10-11T01:33:43.765Z,65.50
2018-10-11T01:34:19.012Z,63.50
2018-10-11T01:34:54.406Z,67.10
2018-10-11T01:35:30.145Z,68.10
2018-10-11T01:36:05.573Z,68.00
2018-10-11T01:36:40.710Z,66.10
2018-10-11T01:37:15.829Z,70.50
2018-10-11T01:37:51.735Z,69.10
2018-10-11T01:38:26.926Z,70.50
2018-10-11T01:39:02.283Z,68.50
2018-10-11T01:39:37.587Z,67.50
2018-10-11T01:40:13.149Z,73.10
2018-10-11T01:40:48.609Z,71.40
2018-10-11T01:41:24.083Z,67.10
2018-10-11T01:41:59.491Z,71.10
2018-10-11T01:42:34.741Z,72.00
2018-10-11T01:43:10.483Z,71.20
2018-10-11T01:43:45.805Z,76.80
2018-10-11T01:44:21.121Z,66.90
2018-10-11T01:44:56.443Z,68.70
2018-10-11T01:45:32.001Z,69.70
2018-10-11T01:46:07.352Z,72.10
2018-10-11T01:46:42.701Z,74.10
2018-10-11T01:47:17.971Z,70.10
2018-10-11T01:47:53.335Z,69.80
2018-10-11T01:48:28.839Z,67.30
2018-10-11T01:49:04.079Z,66.70
2018-10-11T01:49:39.554Z,74.60
2018-10-11T01:50:14.666Z,71.50
2018-10-11T01:50:49.990Z,69.70
2018-10-11T01:51:25.147Z,70.40
2018-10-11T01:52:00.585Z,74.40
2018-10-11T01:52:36.006Z,68.20
2018-10-11T01:53:11.141Z,66.90
2018-10-11T01:53:46.670Z,70.20
2018-10-11T01:54:22.022Z,70.40
2018-10-11T01:54:57.163Z,66.80
2018-10-11T01:55:32.461Z,66.70
2018-10-11T01:56:08.802Z,69.40
2018-10-11T01:56:44.253Z,68.40
2018-10-11T01:57:20.545Z,67.00
2018-10-11T01:57:55.618Z,66.20
2018-10-11T01:58:31.427Z,64.50
2018-10-11T01:59:06.820Z,65.40
2018-10-11T01:59:42.055Z,70.10
2018-10-11T02:00:17.373Z,76.00
2018-10-11T02:00:52.791Z,69.50
2018-10-11T02:01:28.247Z,68.80
2018-10-11T02:02:03.886Z,74.40
2018-10-11T02:02:39.191Z,76.40
2018-10-11T02:03:14.734Z,74.30
2018-10-11T02:03:50.188Z,77.00
2018-10-11T02:04:25.466Z,74.50
2018-10-11T02:05:00.569Z,74.10
2018-10-11T02:05:35.989Z,72.20
2018-10-11T02:06:11.499Z,76.70
2018-10-11T02:06:46.738Z,78.40
2018-10-11T02:07:22.140Z,76.90
2018-10-11T02:07:57.615Z,77.90
2018-10-11T02:08:32.808Z,71.50
2018-10-11T02:09:08.145Z,70.50
2018-10-11T02:09:43.438Z,75.70
2018-10-11T02:10:18.873Z,75.30
2018-10-11T02:10:54.391Z,74.40
2018-10-11T02:11:29.828Z,73.50
2018-10-11T02:12:05.036Z,75.90
2018-10-11T02:12:40.371Z,73.90
2018-10-11T02:13:15.556Z,71.50
2018-10-11T02:13:51.090Z,75.60
2018-10-11T02:14:26.600Z,78.10
2018-10-11T02:15:02.004Z,76.70
2018-10-11T02:15:37.219Z,72.80
2018-10-11T02:16:12.974Z,71.90
2018-10-11T02:16:48.390Z,75.80
2018-10-11T02:17:24.146Z,77.00
2018-10-11T02:17:59.609Z,79.50
2018-10-11T02:18:35.245Z,75.10
2018-10-11T02:19:10.836Z,70.20
2018-10-11T02:19:46.575Z,70.60
2018-10-11T02:20:21.980Z,75.60
2018-10-11T02:20:57.104Z,80.20
2018-10-11T02:21:32.632Z,76.40
2018-10-11T02:22:08.097Z,78.90
2018-10-11T02:22:43.749Z,78.40
2018-10-11T02:23:19.058Z,75.30
2018-10-11T02:23:54.386Z,80.10
2018-10-11T02:24:29.781Z,79.70
2018-10-11T02:25:05.126Z,75.70
2018-10-11T02:25:40.463Z,72.30
2018-10-11T02:26:16.077Z,76.30
2018-10-11T02:26:51.759Z,76.50
2018-10-11T02:27:27.098Z,77.70
2018-10-11T02:28:02.702Z,79.10
2018-10-11T02:28:38.681Z,79.10
2018-10-11T02:29:14.110Z,78.50
2018-10-11T02:29:49.612Z,74.00
2018-10-11T02:30:24.798Z,76.00
2018-10-11T02:31:00.014Z,72.60
2018-10-11T02:31:35.277Z,78.40
2018-10-11T02:32:10.805Z,75.00
2018-10-11T02:32:45.938Z,75.70
2018-10-11T02:33:21.592Z,78.30
2018-10-11T02:33:56.793Z,71.60
2018-10-11T02:34:32.131Z,73.40
2018-10-11T02:35:07.338Z,71.50
2018-10-11T02:35:42.646Z,72.70
2018-10-11T02:36:17.877Z,75.20
2018-10-11T02:36:53.477Z,75.30
2018-10-11T02:37:28.821Z,80.10
2018-10-11T02:38:04.339Z,72.10
2018-10-11T02:38:39.675Z,75.20
2018-10-11T02:39:14.976Z,77.80
2018-10-11T02:39:50.514Z,74.70
2018-10-11T02:40:25.964Z,71.20
2018-10-11T02:41:01.485Z,70.40
2018-10-11T02:41:37.120Z,73.70
2018-10-11T02:42:12.898Z,76.20
2018-10-11T02:42:47.957Z,78.60
2018-10-11T02:43:23.524Z,76.30
2018-10-11T02:43:58.869Z,72.30
2018-10-11T02:44:34.264Z,80.10
2018-10-11T02:45:09.816Z,78.60
2018-10-11T02:45:45.223Z,75.00
2018-10-11T02:46:20.886Z,71.00
2018-10-11T02:46:56.901Z,74.70
2018-10-11T02:47:32.513Z,70.10
2018-10-11T02:48:08.059Z,73.60
2018-10-11T02:48:43.506Z,76.00
2018-10-11T02:49:18.839Z,72.30
2018-10-11T02:49:53.866Z,69.30
2018-10-11T02:50:29.316Z,68.10
2018-10-11T02:51:04.790Z,66.70
2018-10-11T02:51:40.186Z,72.60
2018-10-11T02:52:15.739Z,72.00
2018-10-11T02:52:51.060Z,74.80
2018-10-11T02:53:26.675Z,77.30
2018-10-11T02:54:01.981Z,78.60
2018-10-11T02:54:37.225Z,74.40
2018-10-11T02:55:12.421Z,72.50
2018-10-11T02:55:48.150Z,76.10
2018-10-11T02:56:23.583Z,72.60
2018-10-11T02:56:58.953Z,72.40
2018-10-11T02:57:34.064Z,70.90
2018-10-11T02:58:09.550Z,72.90
2018-10-11T02:58:44.786Z,73.10
2018-10-11T02:59:20.007Z,72.10
2018-10-11T02:59:55.794Z,73.40
2018-10-11T03:00:31.018Z,78.50
2018-10-11T03:01:06.466Z,76.20
2018-10-11T03:01:41.808Z,67.70
2018-10-11T03:02:17.978Z,69.20
2018-10-11T03:02:53.631Z,74.50
2018-10-11T03:03:29.125Z,70.00
2018-10-11T03:04:04.677Z,72.30
2018-10-11T03:04:40.090Z,71.80
2018-10-11T03:05:15.760Z,72.60
2018-10-11T03:05:50.946Z,69.70
2018-10-11T03:06:26.301Z,68.80
2018-10-11T03:07:01.592Z,72.80
2018-10-11T03:07:36.925Z,71.20
2018-10-11T03:08:12.229Z,71.70
2018-10-11T03:08:47.652Z,68.40
2018-10-11T03:09:23.477Z,65.00
2018-10-11T03:09:59.094Z,68.60
2018-10-11T03:10:34.725Z,71.40
2018-10-11T03:11:09.909Z,71.40
2018-10-11T03:11:45.042Z,70.20
2018-10-11T03:12:20.051Z,69.50
2018-10-11T03:12:55.267Z,71.80
2018-10-11T03:13:30.508Z,68.70
2018-10-11T03:14:05.620Z,70.00
2018-10-11T03:14:41.142Z,70.70
2018-10-11T03:15:16.341Z,70.00
2018-10-11T03:15:51.624Z,70.10
2018-10-11T03:16:26.884Z,70.50
2018-10-11T03:17:02.358Z,71.20
2018-10-11T03:17:37.994Z,71.60
2018-10-11T03:18:13.564Z,72.70
2018-10-11T03:18:48.893Z,70.30
2018-10-11T03:19:24.558Z,70.20
2018-10-11T03:20:00.200Z,75.10
2018-10-11T03:20:35.577Z,73.20
2018-10-11T03:21:10.940Z,70.50
2018-10-11T03:21:46.368Z,73.80
2018-10-11T03:22:21.873Z,78.20
2018-10-11T03:22:57.263Z,72.60
2018-10-11T03:23:32.612Z,69.80
2018-10-11T03:24:07.974Z,67.40
2018-10-11T03:24:43.626Z,68.40
2018-10-11T03:25:19.301Z,64.20
2018-10-11T03:25:54.723Z,66.20
2018-10-11T03:26:30.572Z,68.00
2018-10-11T03:27:05.962Z,68.70
2018-10-11T03:27:41.631Z,65.60
2018-10-11T03:28:17.156Z,67.20
2018-10-11T03:28:52.180Z,72.90
2018-10-11T03:29:27.560Z,73.40
2018-10-11T03:30:03.150Z,75.80
2018-10-11T03:30:38.440Z,71.70
2018-10-11T03:31:13.621Z,70.50
2018-10-11T03:31:49.030Z,66.50
2018-10-11T03:32:24.399Z,63.30
2018-10-11T03:32:59.761Z,62.70
2018-10-11T03:33:35.264Z,66.50
2018-10-11T03:34:10.373Z,69.20
2018-10-11T03:34:46.003Z,65.70
2018-10-11T03:35:21.421Z,66.40
2018-10-11T03:35:56.596Z,70.10
2018-10-11T03:36:31.948Z,69.80
2018-10-11T03:37:07.694Z,68.50
2018-10-11T03:37:43.122Z,62.30
2018-10-11T03:38:18.602Z,64.40
2018-10-11T03:38:54.109Z,69.00
2018-10-11T03:39:29.580Z,71.40
2018-10-11T03:40:04.972Z,67.60
2018-10-11T03:40:40.627Z,62.00
2018-10-11T03:41:15.848Z,66.80
2018-10-11T03:41:51.976Z,70.40
2018-10-11T03:42:27.273Z,72.00
2018-10-11T03:43:02.856Z,71.40
2018-10-11T03:43:38.121Z,70.90
2018-10-11T03:44:13.346Z,69.10
2018-10-11T03:44:48.554Z,67.20
2018-10-11T03:45:24.025Z,69.90
2018-10-11T03:45:59.454Z,69.90
2018-10-11T03:46:35.110Z,72.10
2018-10-11T03:47:10.242Z,71.70
2018-10-11T03:47:45.712Z,69.20
2018-10-11T03:48:20.815Z,73.40
2018-10-11T03:48:57.621Z,74.00
2018-10-11T03:49:32.946Z,71.30
2018-10-11T03:50:08.370Z,68.30
2018-10-11T03:50:43.728Z,68.20
2018-10-11T03:51:19.257Z,65.80
2018-10-11T03:51:54.588Z,70.40
2018-10-11T03:52:30.018Z,72.90
2018-10-11T03:53:05.432Z,67.40
2018-10-11T03:53:40.658Z,62.80
2018-10-11T03:54:16.211Z,66.90
2018-10-11T03:54:51.870Z,69.80
2018-10-11T03:55:26.940Z,75.70
2018-10-11T03:56:02.080Z,74.80
2018-10-11T03:56:37.418Z,71.90
2018-10-11T03:57:12.744Z,73.10
2018-10-11T03:57:48.389Z,69.20
2018-10-11T03:58:23.819Z,73.00
2018-10-11T03:58:59.072Z,72.30
2018-10-11T03:59:34.479Z,71.90
2018-10-11T04:00:09.701Z,68.60
2018-10-11T04:00:45.127Z,67.50
2018-10-11T04:01:20.384Z,68.60
2018-10-11T04:01:55.594Z,69.80
2018-10-11T04:02:30.748Z,69.20
2018-10-11T04:03:06.390Z,68.00
2018-10-11T04:03:42.444Z,66.30
2018-10-11T04:04:17.783Z,68.30
2018-10-11T04:04:52.992Z,71.00
2018-10-11T04:05:28.237Z,68.80
2018-10-11T04:06:03.660Z,73.50
2018-10-11T04:06:39.004Z,71.60
2018-10-11T04:07:14.531Z,65.90
2018-10-11T04:07:49.867Z,68.80
2018-10-11T04:08:25.243Z,72.10
2018-10-11T04:09:00.575Z,69.20
2018-10-11T04:09:36.624Z,66.40
2018-10-11T04:10:11.867Z,69.70
2018-10-11T04:10:48.189Z,68.10
2018-10-11T04:11:23.677Z,68.00
2018-10-11T04:11:59.174Z,72.50
2018-10-11T04:12:34.625Z,69.90
2018-10-11T04:13:09.949Z,69.50
2018-10-11T04:13:45.972Z,69.70
2018-10-11T04:14:21.541Z,70.20
2018-10-11T04:14:56.970Z,68.30
2018-10-11T04:15:32.419Z,67.80
2018-10-11T04:16:07.702Z,65.40
2018-10-11T04:16:43.343Z,66.10
2018-10-11T04:17:21.160Z,63.70
2018-10-11T04:17:56.608Z,62.40
2018-10-11T04:18:31.852Z,70.30
2018-10-11T04:19:06.997Z,74.50
2018-10-11T04:19:42.403Z,71.20
2018-10-11T04:20:18.000Z,69.60
2018-10-11T04:20:53.369Z,72.60
2018-10-11T04:21:28.703Z,71.20
2018-10-11T04:22:04.028Z,70.20
2018-10-11T04:22:39.769Z,64.50
2018-10-11T04:23:15.079Z,69.00
2018-10-11T04:23:50.908Z,74.20
2018-10-11T04:24:26.217Z,68.50
2018-10-11T04:25:01.646Z,68.00
2018-10-11T04:25:37.208Z,71.00
2018-10-11T04:26:12.463Z,70.30
2018-10-11T04:26:47.881Z,71.00
2018-10-11T04:27:23.241Z,68.20
2018-10-11T04:27:58.829Z,65.70
2018-10-11T04:28:34.382Z,68.00
2018-10-11T04:29:09.679Z,71.10
2018-10-11T04:29:45.226Z,69.80
2018-10-11T04:30:20.425Z,67.20
2018-10-11T04:30:55.983Z,71.10
2018-10-11T04:31:31.420Z,72.70
2018-10-11T04:32:06.554Z,67.80
2018-10-11T04:32:41.909Z,71.30
2018-10-11T04:33:17.152Z,74.70
2018-10-11T04:33:52.468Z,70.50
2018-10-11T04:34:27.783Z,69.20
2018-10-11T04:35:03.006Z,70.50
2018-10-11T04:35:38.497Z,75.00
2018-10-11T04:36:14.290Z,74.70
2018-10-11T04:36:49.520Z,72.70
2018-10-11T04:37:24.856Z,75.20
2018-10-11T04:38:00.275Z,71.40
2018-10-11T04:38:35.650Z,65.60
2018-10-11T04:39:11.627Z,63.50
2018-10-11T04:39:46.998Z,64.90
2018-10-11T04:40:22.406Z,65.40
2018-10-11T04:40:57.886Z,65.10
2018-10-11T04:41:33.095Z,72.30
2018-10-11T04:42:08.536Z,71.60
2018-10-11T04:42:44.277Z,74.90
2018-10-11T04:43:19.722Z,80.20
2018-10-11T04:43:55.230Z,75.60
2018-10-11T04:44:30.658Z,69.50
2018-10-11T04:45:05.925Z,68.70
2018-10-11T04:45:41.123Z,68.10
2018-10-11T04:46:16.184Z,67.30
2018-10-11T04:46:52.248Z,69.40
2018-10-11T04:47:27.487Z,71.20
2018-10-11T04:48:03.007Z,69.00
2018-10-11T04:48:38.423Z,70.00
2018-10-11T04:49:13.868Z,67.40
2018-10-11T04:49:49.388Z,64.50
2018-10-11T04:50:24.636Z,66.70
2018-10-11T04:51:00.068Z,68.20
2018-10-11T04:51:35.315Z,66.10
2018-10-11T04:52:10.611Z,63.20
2018-10-11T04:52:46.140Z,67.30
2018-10-11T04:53:21.769Z,81.00
2018-10-11T04:54:00.384Z,77.30
2018-10-11T04:54:35.684Z,69.10
2018-10-11T04:55:10.909Z,67.50
2018-10-11T04:55:46.403Z,68.60
2018-10-11T04:56:21.749Z,64.10
2018-10-11T04:56:57.779Z,64.10
2018-10-11T04:57:33.230Z,61.30
2018-10-11T04:58:08.724Z,62.20
2018-10-11T04:58:44.067Z,65.00
2018-10-11T04:59:19.436Z,68.20
2018-10-11T04:59:58.266Z,68.50
2018-10-11T05:00:33.887Z,63.70
2018-10-11T05:01:09.252Z,70.10
2018-10-11T05:01:44.565Z,74.80
2018-10-11T05:02:19.899Z,72.50
2018-10-11T05:02:55.302Z,70.10
2018-10-11T05:03:30.762Z,69.00
2018-10-11T05:04:06.271Z,65.60
2018-10-11T05:04:41.955Z,68.40
2018-10-11T05:05:17.560Z,67.90
2018-10-11T05:05:53.076Z,65.00
2018-10-11T05:06:28.477Z,66.70
2018-10-11T05:07:03.730Z,68.90
2018-10-11T05:07:39.226Z,64.00
2018-10-11T05:08:14.557Z,62.80
2018-10-11T05:08:50.074Z,61.90
2018-10-11T05:09:25.393Z,62.80
2018-10-11T05:10:01.053Z,62.40
2018-10-11T05:10:36.692Z,63.70
2018-10-11T05:11:11.980Z,67.40
2018-10-11T05:11:47.300Z,63.50
2018-10-11T05:12:22.702Z,63.30
2018-10-11T05:12:57.847Z,70.50
2018-10-11T05:13:33.286Z,67.20
2018-10-11T05:14:08.358Z,63.90
2018-10-11T05:14:43.511Z,66.70
2018-10-11T05:15:18.835Z,58.90
2018-10-11T05:15:54.421Z,58.90
2018-10-11T05:16:29.911Z,63.10
2018-10-11T05:17:05.486Z,63.10
2018-10-11T05:17:40.885Z,61.10
2018-10-11T05:18:16.330Z,62.20
2018-10-11T05:18:51.737Z,65.70
2018-10-11T05:19:27.482Z,64.50
2018-10-11T05:20:02.795Z,61.30
2018-10-11T05:20:38.359Z,60.00
2018-10-11T05:21:13.780Z,62.20
2018-10-11T05:21:49.221Z,58.90
2018-10-11T05:22:25.254Z,61.90
2018-10-11T05:23:00.720Z,68.90
2018-10-11T05:23:35.941Z,65.40
2018-10-11T05:24:11.158Z,63.30
2018-10-11T05:24:46.310Z,66.60
2018-10-11T05:25:21.465Z,61.10
2018-10-11T05:25:56.782Z,61.60
2018-10-11T05:26:32.251Z,62.10
2018-10-11T05:27:07.702Z,65.10
2018-10-11T05:27:43.131Z,67.50
2018-10-11T05:28:19.221Z,66.40
2018-10-11T05:28:54.536Z,67.50
2018-10-11T05:29:29.869Z,64.20
2018-10-11T05:30:05.087Z,60.00
2018-10-11T05:30:40.943Z,60.90
2018-10-11T05:31:16.535Z,63.30
2018-10-11T05:31:51.963Z,62.40
2018-10-11T05:32:27.657Z,63.70
2018-10-11T05:33:02.797Z,58.40
2018-10-11T05:33:38.224Z,56.10
2018-10-11T05:34:13.739Z,60.40
2018-10-11T05:34:48.968Z,70.60
2018-10-11T05:35:24.410Z,65.00
2018-10-11T05:35:59.559Z,59.90
2018-10-11T05:36:35.012Z,59.90
2018-10-11T05:37:10.402Z,59.80
2018-10-11T05:37:45.746Z,57.60
2018-10-11T05:38:21.078Z,62.50
2018-10-11T05:38:56.397Z,65.50
2018-10-11T05:39:31.532Z,65.50
2018-10-11T05:40:06.830Z,64.20
2018-10-11T05:40:43.968Z,63.20
2018-10-11T05:41:19.378Z,65.10
2018-10-11T05:41:54.891Z,63.90
2018-10-11T05:42:30.209Z,64.20
2018-10-11T05:43:05.636Z,63.80
2018-10-11T05:43:40.951Z,64.00
2018-10-11T05:44:16.278Z,68.10
2018-10-11T05:44:51.575Z,69.10
2018-10-11T05:45:27.006Z,61.80
2018-10-11T05:46:02.143Z,58.70
2018-10-11T05:46:38.118Z,58.00
2018-10-11T05:47:13.452Z,61.10
2018-10-11T05:47:49.550Z,60.80
2018-10-11T05:48:24.887Z,57.80
2018-10-11T05:49:00.577Z,59.50
2018-10-11T05:49:36.084Z,60.20
2018-10-11T05:50:11.585Z,63.80
2018-10-11T05:50:46.866Z,63.70
2018-10-11T05:51:22.637Z,63.80
2018-10-11T05:51:58.188Z,65.30
2018-10-11T05:52:33.453Z,68.50
2018-10-11T05:53:08.957Z,64.90
2018-10-11T05:53:44.469Z,68.40
2018-10-11T05:54:19.957Z,69.20
2018-10-11T05:54:55.223Z,65.60
2018-10-11T05:55:30.710Z,64.20
2018-10-11T05:56:06.055Z,61.40
2018-10-11T05:56:41.636Z,64.90
2018-10-11T05:57:17.048Z,65.40
2018-10-11T05:57:52.246Z,62.80
2018-10-11T05:58:27.631Z,65.70
2018-10-11T05:59:02.809Z,63.60
2018-10-11T05:59:38.549Z,61.90
2018-10-11T06:00:13.687Z,64.60
2018-10-11T06:00:49.267Z,63.60
2018-10-11T06:01:24.780Z,62.80
2018-10-11T06:02:00.244Z,68.10
2018-10-11T06:02:35.308Z,68.60
2018-10-11T06:03:10.892Z,65.20
2018-10-11T06:03:46.195Z,61.90
2018-10-11T06:04:21.685Z,62.90
2018-10-11T06:04:56.891Z,64.60
2018-10-11T06:05:32.621Z,67.00
2018-10-11T06:06:07.856Z,69.50
2018-10-11T06:06:43.422Z,65.40
2018-10-11T06:07:18.888Z,62.20
2018-10-11T06:07:54.257Z,63.00
2018-10-11T06:08:29.661Z,64.90
2018-10-11T06:09:05.000Z,64.70
2018-10-11T06:09:40.304Z,61.30
2018-10-11T06:10:15.680Z,63.90
2018-10-11T06:10:51.183Z,70.50
2018-10-11T06:11:26.834Z,72.50
2018-10-11T06:12:02.127Z,67.40
2018-10-11T06:12:37.315Z,64.70
2018-10-11T06:13:12.833Z,68.10
2018-10-11T06:13:48.522Z,59.90
2018-10-11T06:14:23.924Z,59.40
2018-10-11T06:14:59.172Z,64.20
2018-10-11T06:15:34.659Z,68.50
2018-10-11T06:16:10.054Z,65.10
2018-10-11T06:16:45.494Z,66.70
2018-10-11T06:17:20.823Z,72.50
2018-10-11T06:17:56.206Z,71.80
2018-10-11T06:18:31.748Z,64.40
2018-10-11T06:19:07.146Z,70.40
2018-10-11T06:19:42.573Z,71.30
2018-10-11T06:20:17.764Z,65.10
2018-10-11T06:20:53.104Z,62.00
2018-10-11T06:21:28.616Z,62.50
2018-10-11T06:22:04.189Z,63.00
2018-10-11T06:22:39.689Z,64.30
2018-10-11T06:23:14.857Z,61.10
2018-10-11T06:23:49.949Z,61.00
2018-10-11T06:24:25.388Z,62.70
2018-10-11T06:25:00.613Z,67.10
2018-10-11T06:25:36.636Z,65.10
2018-10-11T06:26:12.159Z,63.70
2018-10-11T06:26:47.707Z,62.30
2018-10-11T06:27:23.326Z,61.40
2018-10-11T06:27:58.445Z,65.30
2018-10-11T06:28:33.792Z,60.90
2018-10-11T06:29:09.165Z,57.10
2018-10-11T06:29:44.393Z,56.40
2018-10-11T06:30:20.126Z,58.00
2018-10-11T06:30:55.379Z,65.80
2018-10-11T06:31:30.512Z,62.40
2018-10-11T06:32:06.416Z,58.70
2018-10-11T06:32:41.697Z,58.00
2018-10-11T06:33:17.064Z,58.50
2018-10-11T06:33:53.044Z,54.20
2018-10-11T06:34:28.657Z,55.20
2018-10-11T06:35:04.105Z,58.50
2018-10-11T06:35:39.415Z,60.70
2018-10-11T06:36:15.064Z,58.50
2018-10-11T06:36:50.363Z,54.40
2018-10-11T06:37:25.924Z,58.20
2018-10-11T06:38:01.085Z,58.40
2018-10-11T06:38:37.575Z,55.60
2018-10-11T06:39:13.078Z,56.10
2018-10-11T06:39:48.409Z,56.90
2018-10-11T06:40:23.694Z,56.00
2018-10-11T06:40:58.750Z,58.70
2018-10-11T06:41:34.300Z,60.70
2018-10-11T06:42:09.923Z,57.20
2018-10-11T06:42:45.430Z,59.90
2018-10-11T06:43:20.933Z,59.30
2018-10-11T06:43:56.483Z,58.90
2018-10-11T06:44:31.732Z,50.90
2018-10-11T06:45:06.945Z,48.80
2018-10-11T06:45:42.400Z,57.30
2018-10-11T06:46:18.203Z,55.70
2018-10-11T06:46:53.654Z,53.30
2018-10-11T06:47:28.940Z,51.90
2018-10-11T06:48:04.268Z,48.30
2018-10-11T06:48:40.106Z,49.20
2018-10-11T06:49:15.766Z,52.10
2018-10-11T06:49:51.303Z,49.80
2018-10-11T06:50:26.810Z,50.30
2018-10-11T06:51:02.250Z,53.10
2018-10-11T06:51:37.865Z,47.40
2018-10-11T06:52:13.475Z,44.60
2018-10-11T06:52:48.801Z,44.90
2018-10-11T06:53:24.323Z,44.90
2018-10-11T06:53:59.663Z,46.60
2018-10-11T06:54:34.902Z,45.30
2018-10-11T06:55:10.089Z,40.80
2018-10-11T06:55:45.732Z,44.00
2018-10-11T06:56:21.184Z,42.50
2018-10-11T06:56:56.481Z,40.70
2018-10-11T06:57:31.634Z,41.70
2018-10-11T06:58:07.240Z,40.40
2018-10-11T06:58:42.369Z,41.60
2018-10-11T06:59:17.488Z,42.70
2018-10-11T06:59:52.854Z,38.50
2018-10-11T07:00:28.183Z,41.30
2018-10-11T07:01:03.750Z,37.50
2018-10-11T07:01:39.057Z,37.20
2018-10-11T07:02:14.369Z,39.30
2018-10-11T07:02:49.692Z,39.40
2018-10-11T07:03:25.237Z,40.70
2018-10-11T07:04:00.583Z,38.30
2018-10-11T07:04:36.163Z,40.60
2018-10-11T07:05:11.367Z,38.10
2018-10-11T07:05:46.717Z,38.00
2018-10-11T07:06:22.256Z,39.00
2018-10-11T07:06:57.703Z,39.60
2018-10-11T07:07:33.002Z,38.30
2018-10-11T07:08:08.683Z,37.10
2018-10-11T07:08:44.178Z,37.70
2018-10-11T07:09:19.496Z,36.10
2018-10-11T07:09:55.777Z,39.80
2018-10-11T07:10:31.405Z,41.40
2018-10-11T07:11:07.019Z,41.80
2018-10-11T07:11:42.474Z,37.10
2018-10-11T07:12:17.660Z,34.80
2018-10-11T07:12:53.057Z,38.20
2018-10-11T07:13:28.431Z,38.70
2018-10-11T07:14:03.878Z,36.40
2018-10-11T07:14:39.237Z,34.20
2018-10-11T07:15:14.796Z,39.30
2018-10-11T07:15:50.179Z,38.70
2018-10-11T07:16:25.468Z,36.20
2018-10-11T07:17:00.729Z,39.30
2018-10-11T07:17:36.091Z,42.20
2018-10-11T07:18:11.509Z,40.60
2018-10-11T07:18:46.972Z,39.10
2018-10-11T07:19:22.187Z,38.50
2018-10-11T07:19:57.696Z,38.10
2018-10-11T07:20:32.931Z,35.50
2018-10-11T07:21:08.320Z,35.00
2018-10-11T07:21:43.923Z,40.10
2018-10-11T07:22:19.239Z,36.60
2018-10-11T07:22:54.660Z,37.90
2018-10-11T07:23:29.982Z,38.20
2018-10-11T07:24:05.632Z,38.50
2018-10-11T07:24:41.054Z,38.30
2018-10-11T07:25:16.464Z,37.80
2018-10-11T07:25:51.978Z,38.30
2018-10-11T07:26:27.319Z,35.70
2018-10-11T07:27:02.769Z,35.30
2018-10-11T07:27:38.410Z,39.00
2018-10-11T07:28:14.073Z,38.00
2018-10-11T07:28:49.379Z,37.30
2018-10-11T07:29:24.711Z,37.20
2018-10-11T07:30:00.018Z,36.60
2018-10-11T07:30:35.137Z,36.40
2018-10-11T07:31:10.291Z,35.00
2018-10-11T07:31:45.614Z,36.00
2018-10-11T07:32:20.978Z,34.10
2018-10-11T07:32:57.821Z,33.90
2018-10-11T07:33:33.127Z,33.30
2018-10-11T07:34:08.759Z,34.40
2018-10-11T07:34:44.225Z,33.00
2018-10-11T07:35:19.753Z,35.10
2018-10-11T07:35:55.009Z,40.00
2018-10-11T07:36:30.278Z,40.10